Rechercher aéroport 
image banner adimage banner ad
image banner ad

SVHC - Caribe

Situé à Maiquetia, Venezuela

ICAO - SVHC, IATA -

Données fournies par Airmate  

Information générale

Coordonnées: N10°35'55" W66°59'48"
Élévation : 138 feet MSL.
 
Voir autres Aéroports à Zulia

Données opérationnelles

Accessible au public
Heure actuelle UTC:
Heure actuelle locale:
METAR: SVMI 301402Z AUTO 33004KT NCD ///// Q1014
TAF: TAF SVMI 301000Z 3012/0112 00000KT 9999 FEW016 TX33/3018Z TN23/3008Z BECMG 3015/3020 07005KT SCT016 FM302100 09006KT 9999 SCT016 SCT100
Voir NOTAMs / SUP AIP / TFR affectant cet aéroport [VIEW]
Fréquences de communication: [VIEW]

Pistes:

Coordonnées de l'aéroport

Adresse: Maiquetia Venezuela

Vue satellite de SVHC